New Hartfd, New York
Current Conditions -  °F | °C
As of 9:53 PM on Saturday 22 Nov 2014 (Local Time) from KRME Reporting Station
Light Rain Light Rain  
Wind Chill: 30°   Ceiling: 2100
Heat Index: 36°   Visibility: 6mi
Dew Point: 35°   Wind: 7mph
Humidity: 97%   Direction: 90°E
Pressure: 30.04"   Gusts: NA
Location:  43.06°N, 75.2864°W
Report Text: KRME 230253Z AUTO 09006KT 6SM -RA BR OVC021 02/02 A3004 RMK AO2 RAB06 SLP178 P0002 60006 T00220017 58003
Loading
Personal Weather Stations






























Interactive Weather Map New forecast layout! Learn more

10-Day Weather Forecast

Advertisements
Track Severe Weather on mobile